Time;durP1;ratioP1;P1;durP2;ratioP2;P2;SDS_P1;SDS_P2;PMS_P1;PMS_P2;Temp;Humidity;BMP_temperature;BMP_pressure;BME280_temperature;BME280_humidity;BME280_pressure;Samples;Min_cycle;Max_cycle;Signal;HPM_P1;HPM_P2
2022/09/25 00:00:43;;;;;;;2.90;1.10;;;14.90;99.90;;;;;;5058706;28;20024;-82
2022/09/25 00:03:10;;;;;;;3.00;1.20;;;14.80;99.90;;;;;;5050033;28;20051;-83
2022/09/25 00:05:37;;;;;;;2.40;1.15;;;14.80;99.90;;;;;;5061502;28;20035;-82
2022/09/25 00:08:04;;;;;;;2.17;1.10;;;14.80;99.90;;;;;;5082694;28;20032;-82
2022/09/25 00:10:30;;;;;;;2.30;1.10;;;14.80;99.90;;;;;;5068224;28;20117;-82
2022/09/25 00:12:56;;;;;;;3.03;1.23;;;14.70;99.90;;;;;;5065945;28;20077;-82
2022/09/25 00:15:21;;;;;;;4.03;1.33;;;14.70;99.90;;;;;;5076708;28;20032;-82
2022/09/25 00:17:47;;;;;;;2.20;1.23;;;14.70;99.90;;;;;;5057299;28;20305;-83
2022/09/25 00:20:16;;;;;;;1.93;1.13;;;14.70;99.90;;;;;;5080087;28;20032;-82
2022/09/25 00:22:42;;;;;;;1.83;1.20;;;14.70;99.90;;;;;;5075918;28;20029;-83
2022/09/25 00:25:13;;;;;;;3.13;1.25;;;14.70;99.90;;;;;;5063785;28;20392;-82
2022/09/25 00:27:39;;;;;;;3.38;1.20;;;14.70;99.90;;;;;;5067398;28;20024;-82
2022/09/25 00:30:05;;;;;;;2.45;1.10;;;14.70;99.90;;;;;;5071615;28;20240;-83
2022/09/25 00:32:31;;;;;;;2.07;1.00;;;14.70;99.90;;;;;;5061343;28;20713;-83
2022/09/25 00:34:57;;;;;;;2.58;1.08;;;14.70;99.90;;;;;;5073652;28;20165;-82
2022/09/25 00:37:22;;;;;;;2.40;1.03;;;14.60;99.90;;;;;;5051186;28;22490;-82
2022/09/25 00:39:48;;;;;;;2.65;1.02;;;14.60;99.90;;;;;;5080557;28;20055;-82
2022/09/25 00:42:18;;;;;;;2.03;1.10;;;14.60;99.90;;;;;;5066991;28;20033;-83
2022/09/25 00:45:00;;;;;;;1.58;1.00;;;14.60;99.90;;;;;;5062327;28;20027;-82
2022/09/25 00:47:45;;;;;;;2.15;1.10;;;14.60;99.90;;;;;;5068553;28;20136;-81
2022/09/25 00:50:46;;;;;;;1.50;1.10;;;14.60;99.90;;;;;;5026616;28;20036;-82
2022/09/25 00:53:19;;;;;;;2.33;1.03;;;14.50;99.90;;;;;;5065367;28;20092;-82
2022/09/25 00:55:45;;;;;;;2.50;1.10;;;14.50;99.90;;;;;;5069066;28;20036;-82
2022/09/25 00:58:13;;;;;;;1.83;1.02;;;14.50;99.90;;;;;;5070733;28;20031;-82
2022/09/25 01:00:40;;;;;;;4.18;1.38;;;14.40;99.90;;;;;;5077018;28;20015;-82
2022/09/25 01:03:07;;;;;;;2.45;1.02;;;14.30;99.90;;;;;;5069586;28;20069;-82
2022/09/25 01:05:36;;;;;;;1.93;1.03;;;14.30;99.90;;;;;;5066321;28;20067;-82
2022/09/25 01:08:04;;;;;;;1.38;1.00;;;14.30;99.90;;;;;;5086625;28;20051;-82
2022/09/25 01:10:31;;;;;;;5.15;1.23;;;14.30;99.90;;;;;;5056028;28;20560;-81
2022/09/25 01:12:59;;;;;;;2.55;1.10;;;14.20;99.90;;;;;;5081444;28;20384;-81
2022/09/25 01:15:44;;;;;;;2.17;1.13;;;14.20;99.90;;;;;;5060611;28;20025;-81
2022/09/25 01:18:16;;;;;;;2.27;1.10;;;14.20;99.90;;;;;;5065240;28;20040;-82
2022/09/25 01:20:53;;;;;;;2.03;0.95;;;14.20;99.90;;;;;;5045851;28;20032;-82
2022/09/25 01:23:29;;;;;;;2.58;0.95;;;14.10;99.90;;;;;;5066034;28;20443;-82
2022/09/25 01:26:15;;;;;;;2.95;0.90;;;14.10;99.90;;;;;;5078127;28;20422;-82
2022/09/25 01:29:18;;;;;;;2.10;0.98;;;14.00;99.90;;;;;;5075248;28;20148;-81
2022/09/25 01:32:03;;;;;;;1.77;0.90;;;14.00;99.90;;;;;;5044342;28;20048;-81
2022/09/25 01:34:59;;;;;;;2.85;1.00;;;13.90;99.90;;;;;;5058789;28;20055;-81
2022/09/25 01:37:43;;;;;;;2.03;0.95;;;13.90;99.90;;;;;;5060162;28;20032;-82
2022/09/25 01:40:12;;;;;;;1.67;0.88;;;13.80;99.80;;;;;;5083164;28;20400;-82
2022/09/25 01:42:53;;;;;;;2.95;1.10;;;13.70;99.70;;;;;;5070614;28;20020;-81
2022/09/25 01:45:41;;;;;;;1.17;0.90;;;13.70;99.60;;;;;;5052033;28;20387;-81
2022/09/25 01:48:09;;;;;;;1.58;0.80;;;13.70;99.60;;;;;;5092456;28;20313;-81
2022/09/25 01:50:59;;;;;;;1.63;0.90;;;13.60;99.50;;;;;;5068895;28;20069;-82
2022/09/25 01:53:31;;;;;;;1.65;0.90;;;13.50;99.50;;;;;;5071267;28;20156;-82
2022/09/25 01:56:28;;;;;;;1.63;1.00;;;13.50;99.50;;;;;;5070208;28;20362;-81
2022/09/25 01:58:59;;;;;;;1.63;1.10;;;13.50;99.50;;;;;;5078630;28;20124;-81
2022/09/25 02:01:31;;;;;;;2.30;1.00;;;13.50;99.50;;;;;;5059343;28;20256;-81
2022/09/25 02:04:02;;;;;;;2.00;0.95;;;13.40;99.50;;;;;;5088199;28;20016;-81
2022/09/25 02:06:31;;;;;;;2.30;1.00;;;13.30;99.50;;;;;;5070754;28;20661;-81
2022/09/25 02:09:03;;;;;;;2.55;1.10;;;13.30;99.50;;;;;;5082899;28;20563;-81
2022/09/25 02:11:35;;;;;;;1.53;0.90;;;13.30;99.60;;;;;;5058242;28;20240;-81
2022/09/25 02:14:10;;;;;;;1.20;0.90;;;13.20;99.50;;;;;;5079806;28;20023;-81
2022/09/25 02:16:43;;;;;;;1.88;0.95;;;13.20;99.50;;;;;;5060710;28;20292;-81
2022/09/25 02:22:06;;;;;;;1.73;0.90;;;13.10;99.50;;;;;;5076002;28;20123;-81
2022/09/25 02:25:08;;;;;;;1.90;0.93;;;13.10;99.50;;;;;;5069867;28;20170;-82
2022/09/25 02:27:34;;;;;;;2.75;0.80;;;13.10;99.60;;;;;;5080053;28;20020;-81
2022/09/25 02:30:00;;;;;;;2.33;1.00;;;13.00;99.50;;;;;;5056316;28;20020;-81
2022/09/25 02:32:29;;;;;;;1.57;0.90;;;13.00;99.60;;;;;;5043785;28;20025;-81
2022/09/25 02:34:58;;;;;;;1.35;0.85;;;13.00;99.60;;;;;;5090731;28;20035;-81
2022/09/25 02:37:25;;;;;;;1.92;1.00;;;12.90;99.50;;;;;;5092186;28;20032;-81
2022/09/25 02:39:54;;;;;;;4.05;1.00;;;12.90;99.50;;;;;;5079943;27;20021;-81
2022/09/25 02:42:32;;;;;;;1.20;0.90;;;12.90;99.50;;;;;;5060317;28;20024;-81
2022/09/25 02:45:16;;;;;;;1.10;0.90;;;12.90;99.50;;;;;;5085648;28;20016;-81
2022/09/25 02:48:07;;;;;;;1.48;0.98;;;12.80;99.30;;;;;;5073296;28;20120;-81
2022/09/25 02:51:03;;;;;;;1.60;0.85;;;12.80;99.30;;;;;;5073642;28;20212;-81
2022/09/25 02:53:36;;;;;;;1.42;0.80;;;12.80;99.20;;;;;;5064407;28;20080;-81
2022/09/25 02:56:09;;;;;;;4.13;1.17;;;12.70;99.10;;;;;;5047944;28;20106;-81
2022/09/25 02:58:54;;;;;;;1.65;0.95;;;12.60;99.10;;;;;;5059300;28;20631;-81
2022/09/25 03:01:24;;;;;;;1.00;0.88;;;12.60;99.10;;;;;;5066345;28;20499;-81
2022/09/25 03:03:54;;;;;;;1.23;1.00;;;12.60;99.10;;;;;;5061934;28;20176;-80
2022/09/25 03:06:23;;;;;;;0.95;0.85;;;12.50;99.10;;;;;;5080198;28;20089;-81
2022/09/25 03:08:55;;;;;;;1.37;0.90;;;12.50;99.10;;;;;;5067968;28;20050;-81
2022/09/25 03:11:23;;;;;;;2.40;0.90;;;12.50;99.10;;;;;;5058104;28;20062;-81
2022/09/25 03:14:02;;;;;;;2.05;0.85;;;12.50;99.20;;;;;;5082459;28;20063;-81
2022/09/25 03:16:38;;;;;;;1.95;1.15;;;12.40;99.10;;;;;;5072318;28;20593;-81
2022/09/25 03:19:03;;;;;;;1.50;0.90;;;12.40;99.00;;;;;;5078681;28;20028;-81
2022/09/25 03:21:29;;;;;;;1.27;0.80;;;12.40;99.00;;;;;;5077387;28;20148;-81
2022/09/25 03:23:55;;;;;;;1.85;0.90;;;12.30;98.80;;;;;;5078116;28;20326;-81
2022/09/25 03:26:23;;;;;;;1.77;1.00;;;12.30;98.80;;;;;;5075807;28;20040;-81
2022/09/25 03:28:49;;;;;;;1.30;0.80;;;12.20;98.80;;;;;;5080375;28;20104;-81
2022/09/25 03:31:15;;;;;;;0.80;0.70;;;12.20;98.70;;;;;;5089510;28;20734;-81
2022/09/25 03:33:42;;;;;;;1.92;1.08;;;12.10;98.60;;;;;;5082646;28;20153;-81
2022/09/25 03:36:13;;;;;;;1.42;0.80;;;12.10;98.60;;;;;;5037878;28;20407;-81
2022/09/25 03:38:40;;;;;;;1.48;0.80;;;12.10;98.60;;;;;;5075476;28;20111;-81
2022/09/25 03:41:07;;;;;;;1.40;0.73;;;12.00;98.60;;;;;;5065363;28;20030;-81
2022/09/25 03:43:37;;;;;;;2.38;0.90;;;12.00;98.60;;;;;;5081323;28;20087;-81
2022/09/25 03:46:11;;;;;;;0.98;0.88;;;12.00;98.50;;;;;;5063566;28;20033;-81
2022/09/25 03:48:37;;;;;;;1.23;0.80;;;11.90;98.50;;;;;;5065760;28;20536;-81
2022/09/25 03:51:04;;;;;;;1.85;0.90;;;11.90;98.50;;;;;;5062453;28;20369;-81
2022/09/25 03:53:32;;;;;;;1.07;0.80;;;11.80;98.50;;;;;;5081599;28;20028;-81
2022/09/25 03:56:02;;;;;;;2.75;0.98;;;11.80;98.50;;;;;;5057600;28;20028;-81
2022/09/25 03:58:28;;;;;;;1.13;0.80;;;11.80;98.60;;;;;;5057927;28;20257;-81
2022/09/25 04:00:56;;;;;;;1.27;0.98;;;11.80;98.60;;;;;;5086115;28;20035;-80
2022/09/25 04:03:23;;;;;;;1.50;0.95;;;11.70;98.60;;;;;;5080112;28;20683;-81
2022/09/25 04:05:49;;;;;;;1.10;0.80;;;11.70;98.70;;;;;;5073703;28;20074;-81
2022/09/25 04:08:15;;;;;;;0.80;0.70;;;11.70;98.70;;;;;;5067072;28;20028;-81
2022/09/25 04:10:40;;;;;;;1.35;0.90;;;11.60;98.70;;;;;;5059513;28;20564;-81
2022/09/25 04:13:08;;;;;;;1.00;0.83;;;11.60;98.70;;;;;;5085380;28;20051;-80
2022/09/25 04:15:34;;;;;;;0.98;0.80;;;11.60;98.60;;;;;;5075210;28;20196;-81
2022/09/25 04:18:00;;;;;;;3.30;0.90;;;11.50;98.50;;;;;;5077476;28;20137;-81
2022/09/25 04:20:26;;;;;;;1.20;0.90;;;11.50;98.50;;;;;;5066527;28;20104;-81
2022/09/25 04:22:51;;;;;;;1.25;1.05;;;11.50;98.50;;;;;;5036624;28;20038;-81
2022/09/25 04:25:20;;;;;;;1.10;0.90;;;11.50;98.50;;;;;;5046825;28;20478;-81
2022/09/25 04:27:46;;;;;;;1.15;0.90;;;11.40;98.40;;;;;;5079361;28;20063;-81
2022/09/25 04:30:12;;;;;;;1.20;0.85;;;11.40;98.40;;;;;;5036675;28;20036;-81
2022/09/25 04:35:22;;;;;;;0.90;0.80;;;11.30;98.30;;;;;;5067665;28;20640;-80
2022/09/25 04:37:48;;;;;;;1.50;0.90;;;11.30;98.30;;;;;;5065785;28;20246;-81
2022/09/25 04:40:13;;;;;;;1.20;0.90;;;11.20;98.30;;;;;;5065302;28;20169;-80
2022/09/25 04:42:41;;;;;;;2.07;0.80;;;11.20;98.20;;;;;;5068332;28;20293;-81
2022/09/25 04:45:08;;;;;;;0.88;0.80;;;11.20;98.20;;;;;;5064310;28;20039;-81
2022/09/25 04:47:33;;;;;;;1.30;0.88;;;11.10;98.20;;;;;;5066843;28;20140;-80
2022/09/25 04:49:59;;;;;;;1.00;0.70;;;11.10;98.20;;;;;;5075081;28;20102;-80
2022/09/25 04:52:25;;;;;;;1.73;0.80;;;11.10;98.30;;;;;;5052409;28;20273;-80
2022/09/25 04:54:50;;;;;;;1.10;0.90;;;11.10;98.40;;;;;;5064214;28;20285;-80
2022/09/25 04:57:20;;;;;;;1.20;0.77;;;11.10;98.50;;;;;;5074633;28;20051;-80
2022/09/25 04:59:47;;;;;;;1.42;0.90;;;11.10;98.50;;;;;;5078212;28;20020;-80
2022/09/25 05:02:13;;;;;;;2.00;0.98;;;11.00;98.60;;;;;;5041049;28;20115;-80
2022/09/25 05:04:39;;;;;;;2.17;0.90;;;11.00;98.60;;;;;;5061389;28;20145;-80
2022/09/25 05:07:05;;;;;;;2.03;1.10;;;11.00;98.70;;;;;;5054300;28;20028;-80
2022/09/25 05:09:31;;;;;;;2.80;1.20;;;11.00;98.70;;;;;;5069168;28;20092;-80
2022/09/25 05:11:57;;;;;;;2.30;1.40;;;11.00;98.80;;;;;;5068908;28;20492;-81
2022/09/25 05:14:23;;;;;;;1.33;1.10;;;11.00;98.90;;;;;;5065088;28;20035;-80
2022/09/25 05:16:49;;;;;;;1.70;1.10;;;10.90;98.90;;;;;;5060283;28;20421;-80
2022/09/25 05:19:15;;;;;;;1.20;0.85;;;11.00;98.90;;;;;;5072114;28;20644;-80
2022/09/25 05:21:42;;;;;;;1.40;1.02;;;10.90;98.90;;;;;;5060031;28;20469;-81
2022/09/25 05:24:08;;;;;;;2.10;1.10;;;10.90;98.80;;;;;;5058279;28;20019;-80
2022/09/25 05:26:37;;;;;;;1.58;1.10;;;10.90;98.80;;;;;;5070796;28;20023;-81
2022/09/25 05:29:04;;;;;;;1.80;1.00;;;10.90;98.80;;;;;;5084428;28;20251;-80
2022/09/25 05:31:30;;;;;;;1.00;0.85;;;10.90;98.80;;;;;;5054564;28;20031;-80
2022/09/25 05:33:56;;;;;;;1.38;0.98;;;10.90;98.80;;;;;;5065730;28;20369;-80
2022/09/25 05:36:21;;;;;;;1.53;0.90;;;10.90;98.70;;;;;;5070289;28;20040;-80
2022/09/25 05:38:47;;;;;;;1.52;1.00;;;10.80;98.60;;;;;;5034038;28;20543;-80
2022/09/25 05:41:13;;;;;;;3.17;1.27;;;10.80;98.60;;;;;;5067144;28;20039;-80
2022/09/25 05:43:41;;;;;;;2.20;1.10;;;10.80;98.70;;;;;;5043944;28;20025;-80
2022/09/25 05:46:08;;;;;;;1.67;1.25;;;10.80;98.70;;;;;;5056377;28;20649;-81
2022/09/25 05:48:33;;;;;;;2.58;1.17;;;10.70;98.70;;;;;;5059806;28;20260;-80
2022/09/25 05:50:59;;;;;;;1.70;1.10;;;10.70;98.70;;;;;;5067927;28;20479;-80
2022/09/25 05:53:25;;;;;;;1.60;1.10;;;10.70;98.70;;;;;;5070027;28;20229;-81
2022/09/25 05:55:57;;;;;;;1.90;1.10;;;10.70;98.70;;;;;;5058121;28;20027;-80
2022/09/25 05:58:23;;;;;;;1.50;0.90;;;10.70;98.70;;;;;;5050115;28;20387;-80
2022/09/25 06:00:49;;;;;;;1.23;0.90;;;10.70;99.10;;;;;;5049514;28;20625;-81
2022/09/25 06:03:16;;;;;;;2.00;1.10;;;10.70;98.80;;;;;;5056240;28;20059;-81
2022/09/25 06:05:42;;;;;;;1.35;1.00;;;10.70;98.90;;;;;;5055147;28;20416;-80
2022/09/25 06:08:08;;;;;;;2.20;0.97;;;10.70;99.00;;;;;;5063076;28;20020;-81
2022/09/25 06:10:34;;;;;;;1.05;0.80;;;10.60;99.00;;;;;;5046424;28;20043;-81
2022/09/25 06:13:03;;;;;;;1.13;0.87;;;10.60;98.90;;;;;;5071194;28;20017;-80
2022/09/25 06:15:36;;;;;;;1.90;0.90;;;10.60;99.00;;;;;;5050980;28;20301;-80
2022/09/25 06:18:06;;;;;;;2.28;1.25;;;10.60;99.10;;;;;;5075188;27;20028;-80
2022/09/25 06:20:31;;;;;;;2.30;1.30;;;10.60;99.20;;;;;;5057730;28;20032;-81
2022/09/25 06:22:59;;;;;;;2.10;1.50;;;10.60;99.40;;;;;;5066840;28;20028;-81
2022/09/25 06:25:28;;;;;;;2.80;2.13;;;10.60;99.50;;;;;;5047290;28;20043;-80
2022/09/25 06:27:59;;;;;;;4.18;3.53;;;10.70;99.60;;;;;;5062886;28;20214;-80
2022/09/25 06:30:27;;;;;;;4.63;3.20;;;10.70;99.70;;;;;;5061384;28;20024;-81
2022/09/25 06:33:19;;;;;;;6.50;3.90;;;10.70;99.80;;;;;;5063161;28;20051;-81
2022/09/25 06:35:47;;;;;;;4.87;3.70;;;10.70;99.90;;;;;;5053140;28;20717;-81
2022/09/25 06:38:14;;;;;;;6.72;4.20;;;10.70;99.90;;;;;;5060584;28;20119;-81
2022/09/25 06:40:40;;;;;;;8.13;4.57;;;10.80;99.90;;;;;;5042609;28;20144;-80
2022/09/25 06:43:09;;;;;;;5.90;3.53;;;10.80;99.90;;;;;;5060817;28;20027;-81
2022/09/25 06:45:37;;;;;;;4.50;2.70;;;10.90;99.90;;;;;;5038151;28;20008;-80
2022/09/25 06:48:04;;;;;;;3.60;2.00;;;10.90;99.90;;;;;;5050680;28;20049;-80
2022/09/25 06:50:42;;;;;;;3.20;1.98;;;10.90;99.90;;;;;;5058048;28;20031;-80
2022/09/25 06:53:08;;;;;;;3.38;1.98;;;11.00;99.90;;;;;;5067059;28;20576;-80
2022/09/25 06:55:34;;;;;;;3.92;2.05;;;11.00;99.90;;;;;;5057000;28;20062;-80
2022/09/25 06:58:01;;;;;;;2.93;1.50;;;11.10;99.90;;;;;;5052152;28;20116;-80
2022/09/25 07:00:27;;;;;;;3.47;1.70;;;11.20;99.90;;;;;;5075005;28;20020;-81
2022/09/25 07:05:36;;;;;;;2.42;1.60;;;11.30;99.90;;;;;;5055886;28;20118;-80
2022/09/25 07:08:02;;;;;;;2.83;1.90;;;11.40;99.90;;;;;;5074680;28;20028;-81
2022/09/25 07:10:28;;;;;;;3.35;1.95;;;11.50;99.90;;;;;;5062589;28;20496;-80
2022/09/25 07:12:54;;;;;;;3.27;1.80;;;11.60;99.90;;;;;;5049672;28;20247;-81
2022/09/25 07:15:19;;;;;;;2.93;1.50;;;11.70;99.90;;;;;;5081807;28;20302;-81
2022/09/25 07:17:45;;;;;;;3.30;1.95;;;11.80;99.90;;;;;;5048814;28;20315;-81
2022/09/25 07:20:14;;;;;;;3.57;1.93;;;11.90;99.90;;;;;;5061683;28;20032;-81
2022/09/25 07:22:41;;;;;;;3.80;1.92;;;12.20;99.90;;;;;;5041174;28;20350;-80
2022/09/25 07:25:08;;;;;;;4.18;1.88;;;12.70;99.90;;;;;;5066147;28;20031;-81
2022/09/25 07:27:33;;;;;;;2.50;1.70;;;13.20;99.90;;;;;;5056843;28;20081;-81
2022/09/25 07:30:00;;;;;;;4.97;2.03;;;13.80;99.90;;;;;;5065952;28;20036;-81
2022/09/25 07:32:26;;;;;;;3.55;2.00;;;14.50;99.90;;;;;;5059164;28;20028;-81
2022/09/25 07:34:51;;;;;;;3.10;1.90;;;15.20;99.90;;;;;;5053729;28;20124;-82
2022/09/25 07:37:17;;;;;;;3.53;1.50;;;15.90;99.90;;;;;;5043917;28;20024;-82
2022/09/25 07:39:43;;;;;;;3.05;1.65;;;16.60;99.90;;;;;;5061186;28;20425;-82
2022/09/25 07:42:09;;;;;;;2.83;1.37;;;17.30;99.90;;;;;;5065216;28;20420;-81
2022/09/25 07:44:35;;;;;;;2.35;1.40;;;17.90;99.90;;;;;;5043612;28;20167;-82
2022/09/25 07:47:02;;;;;;;2.20;1.35;;;18.50;99.90;;;;;;5060095;28;20032;-81
2022/09/25 07:49:31;;;;;;;2.60;1.38;;;19.10;99.90;;;;;;5062198;28;20020;-82
2022/09/25 07:51:58;;;;;;;3.37;1.57;;;19.70;99.90;;;;;;5048561;28;20017;-82
2022/09/25 07:54:26;;;;;;;2.28;1.15;;;20.30;99.90;;;;;;5037168;28;20039;-83
2022/09/25 07:56:52;;;;;;;2.22;1.20;;;20.80;99.90;;;;;;5070206;28;20028;-81
2022/09/25 07:59:18;;;;;;;1.53;1.17;;;21.20;99.90;;;;;;5054127;28;20031;-81
2022/09/25 08:01:43;;;;;;;2.58;1.10;;;21.60;99.90;;;;;;5053919;28;20035;-82
2022/09/25 08:04:09;;;;;;;1.93;1.40;;;22.00;99.90;;;;;;5033045;28;20244;-82
2022/09/25 08:06:35;;;;;;;1.83;1.10;;;22.40;99.90;;;;;;5078396;27;20024;-81
2022/09/25 08:09:01;;;;;;;1.63;1.00;;;22.70;99.90;;;;;;5059803;28;20229;-81
2022/09/25 08:11:27;;;;;;;2.65;1.00;;;23.10;99.90;;;;;;5059938;28;20043;-82
2022/09/25 08:13:53;;;;;;;1.27;1.00;;;23.40;99.90;;;;;;5074653;28;20032;-81
2022/09/25 08:16:21;;;;;;;2.75;1.40;;;23.70;99.90;;;;;;5031437;28;20043;-81
2022/09/25 08:18:48;;;;;;;2.03;1.17;;;24.00;99.90;;;;;;5059013;28;20054;-81
2022/09/25 08:21:19;;;;;;;2.25;1.00;;;24.30;99.90;;;;;;5049595;28;20559;-81
2022/09/25 08:23:52;;;;;;;2.60;1.10;;;24.60;99.90;;;;;;5054880;28;20028;-80
2022/09/25 08:26:22;;;;;;;3.05;1.13;;;24.90;99.80;;;;;;5054910;28;20032;-82
2022/09/25 08:28:48;;;;;;;1.52;1.20;;;25.20;99.90;;;;;;5051079;28;20112;-82
2022/09/25 08:31:14;;;;;;;2.13;1.33;;;25.50;99.90;;;;;;5036863;28;20088;-82
2022/09/25 08:33:48;;;;;;;1.70;1.15;;;25.70;99.90;;;;;;5068490;28;20122;-82
2022/09/25 08:36:14;;;;;;;2.35;1.20;;;26.00;98.00;;;;;;5063476;28;20083;-82
2022/09/25 08:38:40;;;;;;;1.73;1.23;;;26.20;99.70;;;;;;5050383;28;20539;-81
2022/09/25 08:41:13;;;;;;;1.25;1.00;;;26.50;99.30;;;;;;5064150;28;20050;-82
2022/09/25 08:43:51;;;;;;;1.60;1.17;;;26.70;97.80;;;;;;5037097;28;21568;-82
2022/09/25 08:49:11;;;;;;;2.33;1.10;;;27.10;95.70;;;;;;5065867;28;20096;-82
2022/09/25 08:51:39;;;;;;;2.05;1.02;;;27.20;97.70;;;;;;5050174;28;20559;-82
2022/09/25 08:54:05;;;;;;;1.92;1.00;;;27.40;96.90;;;;;;5043928;28;20023;-82
2022/09/25 08:56:34;;;;;;;1.92;1.15;;;27.50;98.40;;;;;;5064673;28;20106;-82
2022/09/25 08:59:27;;;;;;;1.55;1.05;;;27.70;97.70;;;;;;5056000;28;20032;-82
2022/09/25 09:02:00;;;;;;;1.10;1.00;;;27.90;93.30;;;;;;5050767;28;20025;-83
2022/09/25 09:04:56;;;;;;;2.72;1.00;;;28.00;95.90;;;;;;5038018;28;20023;-83
2022/09/25 09:07:45;;;;;;;1.10;0.85;;;28.20;94.00;;;;;;5059389;28;20032;-85
2022/09/25 09:10:19;;;;;;;3.15;0.85;;;28.40;93.00;;;;;;5057297;28;20088;-86
2022/09/25 09:12:51;;;;;;;1.63;1.10;;;28.70;94.20;;;;;;5042471;28;20033;-84
2022/09/25 09:15:43;;;;;;;1.53;0.80;;;28.90;96.30;;;;;;5068340;28;20020;-86
2022/09/25 09:18:37;;;;;;;1.75;1.00;;;29.10;91.10;;;;;;5041387;28;20394;-84
2022/09/25 09:21:09;;;;;;;1.73;1.00;;;29.30;90.20;;;;;;5050412;28;20040;-86
2022/09/25 09:24:11;;;;;;;2.17;0.80;;;29.30;93.20;;;;;;5047043;28;20035;-86
2022/09/25 09:26:55;;;;;;;1.73;1.10;;;29.20;90.00;;;;;;5045074;28;20020;-86
2022/09/25 09:29:38;;;;;;;1.77;1.03;;;29.30;90.70;;;;;;5058384;28;20782;-86
2022/09/25 09:32:29;;;;;;;2.33;0.90;;;29.30;91.90;;;;;;5069768;28;20766;-86
2022/09/25 09:35:04;;;;;;;2.55;1.20;;;29.50;91.60;;;;;;5067227;28;20028;-86
2022/09/25 09:37:42;;;;;;;2.92;1.00;;;29.60;97.20;;;;;;5070116;28;20677;-86
2022/09/25 09:40:27;;;;;;;1.42;1.00;;;29.70;96.90;;;;;;5048872;28;20059;-87
2022/09/25 09:43:02;;;;;;;1.77;1.00;;;30.00;90.60;;;;;;5066814;27;20040;-85
2022/09/25 09:45:43;;;;;;;1.65;1.10;;;30.10;96.50;;;;;;5063466;28;20024;-86
2022/09/25 09:48:24;;;;;;;3.22;1.20;;;30.40;93.40;;;;;;5041839;28;20274;-86
2022/09/25 09:51:02;;;;;;;1.98;1.10;;;30.70;95.30;;;;;;5077381;28;20020;-85
2022/09/25 09:53:34;;;;;;;1.80;1.30;;;31.00;95.80;;;;;;5074263;28;20069;-84
2022/09/25 09:56:10;;;;;;;1.87;1.30;;;31.30;97.10;;;;;;5061811;28;20175;-83
2022/09/25 09:58:57;;;;;;;1.65;1.33;;;31.60;96.10;;;;;;5066442;28;20034;-84
2022/09/25 10:01:44;;;;;;;2.83;1.10;;;32.00;91.40;;;;;;5052303;28;20094;-86
2022/09/25 10:04:14;;;;;;;2.25;1.35;;;32.30;96.90;;;;;;5048917;28;20248;-85
2022/09/25 10:06:48;;;;;;;2.10;1.27;;;32.50;95.90;;;;;;5055357;28;20215;-82
2022/09/25 10:09:15;;;;;;;1.87;1.20;;;32.70;92.50;;;;;;5074102;28;20024;-84
2022/09/25 10:11:44;;;;;;;2.80;0.98;;;32.80;95.20;;;;;;5062591;28;20028;-84
2022/09/25 10:14:19;;;;;;;3.15;1.30;;;32.90;94.90;;;;;;5056613;28;20488;-86
2022/09/25 10:16:48;;;;;;;2.15;1.20;;;33.00;91.80;;;;;;5065200;28;20020;-84
2022/09/25 10:19:18;;;;;;;2.38;1.52;;;33.20;95.30;;;;;;5049894;28;20583;-86
2022/09/25 10:22:02;;;;;;;1.80;1.20;;;33.30;93.40;;;;;;5088765;27;20120;-85
2022/09/25 10:24:51;;;;;;;1.23;1.08;;;33.40;90.10;;;;;;5070328;28;20012;-83
2022/09/25 10:27:29;;;;;;;1.05;0.95;;;33.10;80.70;;;;;;5066328;28;20208;-85
2022/09/25 10:30:17;;;;;;;2.15;0.90;;;32.70;82.70;;;;;;5060084;28;20504;-85
2022/09/25 10:33:08;;;;;;;1.27;0.70;;;32.10;76.20;;;;;;5049356;28;20580;-85
2022/09/25 10:35:37;;;;;;;1.57;0.90;;;31.50;71.90;;;;;;5053762;28;20016;-85
2022/09/25 10:38:04;;;;;;;1.42;0.80;;;30.90;79.00;;;;;;5053455;28;20340;-85
2022/09/25 10:40:36;;;;;;;1.70;1.00;;;30.20;84.20;;;;;;5059882;28;20055;-83
2022/09/25 10:43:14;;;;;;;1.98;0.80;;;29.90;92.10;;;;;;5030309;28;20024;-83
2022/09/25 10:45:40;;;;;;;0.80;0.80;;;29.70;91.10;;;;;;5048975;28;20054;-84
2022/09/25 10:51:17;;;;;;;2.90;0.77;;;29.40;83.50;;;;;;5059914;28;20085;-85
2022/09/25 10:53:44;;;;;;;1.77;0.70;;;29.10;93.80;;;;;;5051435;28;20179;-85
2022/09/25 10:56:15;;;;;;;2.28;0.90;;;29.10;94.90;;;;;;5058289;28;20032;-84
2022/09/25 10:58:49;;;;;;;2.13;0.98;;;29.20;95.70;;;;;;5068437;28;20097;-83
2022/09/25 11:01:15;;;;;;;2.03;1.13;;;29.50;98.80;;;;;;5053670;28;20119;-83
2022/09/25 11:03:47;;;;;;;2.35;1.20;;;29.90;99.90;;;;;;5062974;28;20028;-84
2022/09/25 11:06:23;;;;;;;1.08;1.00;;;30.40;96.30;;;;;;5033203;28;20040;-83
2022/09/25 11:08:58;;;;;;;1.70;1.00;;;30.80;95.70;;;;;;5071319;28;20025;-85
2022/09/25 11:11:26;;;;;;;1.17;1.00;;;31.20;95.30;;;;;;5044867;28;20051;-81
2022/09/25 11:14:02;;;;;;;1.23;0.80;;;31.50;95.40;;;;;;5056704;28;20028;-82
2022/09/25 11:16:47;;;;;;;1.02;0.73;;;31.50;88.10;;;;;;5047805;28;20028;-81
2022/09/25 11:19:23;;;;;;;1.67;0.75;;;31.30;79.90;;;;;;5058979;28;20072;-82
2022/09/25 11:21:51;;;;;;;1.98;0.90;;;30.90;84.50;;;;;;5056834;28;20592;-81
2022/09/25 11:24:28;;;;;;;1.25;0.60;;;30.60;85.00;;;;;;5068586;28;20027;-81
2022/09/25 11:27:13;;;;;;;1.13;0.60;;;30.10;76.70;;;;;;5059398;28;20031;-82
2022/09/25 11:30:18;;;;;;;1.60;0.60;;;29.70;73.80;;;;;;5061000;28;20027;-81
2022/09/25 11:32:53;;;;;;;1.33;0.80;;;29.10;72.70;;;;;;5051695;28;20040;-82
2022/09/25 11:35:46;;;;;;;2.20;0.70;;;28.70;78.90;;;;;;5066541;28;20032;-81
2022/09/25 11:38:18;;;;;;;0.98;0.63;;;28.30;76.30;;;;;;5066041;28;20032;-81
2022/09/25 11:41:17;;;;;;;1.17;0.77;;;28.00;85.10;;;;;;5078354;28;20028;-82
2022/09/25 11:44:23;;;;;;;0.98;0.60;;;27.70;79.20;;;;;;5056146;28;20028;-81
2022/09/25 11:46:51;;;;;;;0.80;0.68;;;27.40;76.30;;;;;;5077077;28;20020;-81
2022/09/25 11:49:17;;;;;;;0.98;0.70;;;27.10;82.40;;;;;;5069795;28;20066;-81
2022/09/25 11:51:52;;;;;;;1.77;0.60;;;26.90;85.70;;;;;;5067681;28;20571;-81
2022/09/25 11:54:24;;;;;;;1.77;0.77;;;26.60;80.20;;;;;;5035838;28;20523;-81
2022/09/25 11:56:55;;;;;;;2.25;0.65;;;26.40;81.50;;;;;;5091325;28;20032;-81
2022/09/25 11:59:40;;;;;;;1.08;0.70;;;26.20;86.60;;;;;;5064972;28;20106;-81
2022/09/25 12:02:27;;;;;;;0.93;0.60;;;26.20;84.50;;;;;;5072351;28;20059;-81
2022/09/25 12:05:17;;;;;;;1.02;0.70;;;26.40;90.70;;;;;;5060633;28;20027;-81
2022/09/25 12:08:05;;;;;;;0.63;0.57;;;26.90;92.50;;;;;;5053814;28;20132;-82
2022/09/25 12:11:01;;;;;;;1.30;0.60;;;27.60;95.30;;;;;;5036305;28;20445;-81
2022/09/25 12:13:58;;;;;;;1.23;0.70;;;28.20;94.00;;;;;;5067636;28;20024;-81
2022/09/25 12:16:53;;;;;;;1.63;0.80;;;28.70;89.50;;;;;;5040940;28;20028;-81
2022/09/25 12:19:33;;;;;;;1.63;0.73;;;28.90;93.00;;;;;;5046433;28;20331;-85
2022/09/25 12:22:43;;;;;;;1.07;0.70;;;28.90;90.80;;;;;;5065388;28;20028;-84
2022/09/25 12:25:15;;;;;;;2.03;0.65;;;28.90;78.30;;;;;;4947249;28;20814;-83
2022/09/25 12:28:07;;;;;;;1.52;0.80;;;28.60;84.30;;;;;;4973827;28;20041;-84
2022/09/25 12:30:57;;;;;;;1.25;0.77;;;28.40;79.70;;;;;;4960629;28;20040;-85
2022/09/25 12:33:41;;;;;;;1.05;0.70;;;28.20;78.70;;;;;;5029673;28;20135;-84
2022/09/25 12:36:34;;;;;;;0.90;0.70;;;28.00;82.60;;;;;;5058199;27;21658;-82
2022/09/25 12:39:30;;;;;;;1.20;0.80;;;27.90;85.10;;;;;;5068287;27;20020;-85
2022/09/25 12:42:15;;;;;;;1.70;0.80;;;28.10;82.10;;;;;;5052769;28;20437;-85
2022/09/25 12:44:54;;;;;;;2.08;0.88;;;28.10;84.50;;;;;;5071489;28;20024;-83
2022/09/25 12:47:36;;;;;;;1.77;0.80;;;28.10;84.40;;;;;;5037710;28;20052;-85
2022/09/25 12:50:13;;;;;;;0.90;0.70;;;28.10;84.00;;;;;;5059297;28;20020;-82
2022/09/25 12:52:50;;;;;;;2.45;0.70;;;28.00;83.10;;;;;;5044221;28;20477;-84
2022/09/25 12:55:18;;;;;;;1.58;0.82;;;27.90;84.70;;;;;;5054434;28;20642;-84
2022/09/25 12:57:54;;;;;;;1.20;0.77;;;27.90;88.60;;;;;;5047986;28;20660;-84
2022/09/25 13:00:27;;;;;;;2.60;0.90;;;27.90;83.00;;;;;;5060303;28;20520;-85
2022/09/25 13:03:40;;;;;;;0.90;0.70;;;27.90;85.10;;;;;;5044633;28;20020;-85
2022/09/25 13:06:29;;;;;;;0.80;0.70;;;27.90;79.50;;;;;;5053215;28;20049;-82
2022/09/25 13:09:24;;;;;;;1.42;0.70;;;28.00;89.60;;;;;;5076338;28;21627;-85
2022/09/25 13:11:59;;;;;;;1.33;0.70;;;28.20;84.30;;;;;;5062834;28;20035;-82
2022/09/25 13:14:34;;;;;;;1.30;0.80;;;28.50;90.50;;;;;;5088611;28;20044;-85
2022/09/25 13:17:00;;;;;;;1.33;0.67;;;28.80;86.10;;;;;;5057188;28;20028;-84
2022/09/25 13:19:33;;;;;;;1.02;0.70;;;28.90;87.60;;;;;;5053797;28;20637;-84
2022/09/25 13:22:19;;;;;;;1.85;0.60;;;28.90;82.20;;;;;;5062952;28;20036;-83
2022/09/25 13:25:01;;;;;;;0.88;0.73;;;28.70;76.80;;;;;;5072407;28;20039;-83
2022/09/25 13:27:40;;;;;;;1.15;0.70;;;28.40;75.90;;;;;;5058532;28;20024;-81
2022/09/25 13:30:18;;;;;;;1.70;0.80;;;28.20;79.00;;;;;;5080194;28;20052;-85
2022/09/25 13:32:51;;;;;;;0.80;0.60;;;28.00;83.40;;;;;;5045864;28;20446;-83